sensor_id;sensor_type;location;lat;lon;timestamp;P1;durP1;ratioP1;P2;durP2;ratioP2
13607;SDS011;6875;50.852;5.672;2023-04-30T00:00:50;18.20;;;10.67;;
13607;SDS011;6875;50.852;5.672;2023-04-30T00:03:17;17.53;;;10.60;;
13607;SDS011;6875;50.852;5.672;2023-04-30T00:05:43;16.13;;;10.47;;
13607;SDS011;6875;50.852;5.672;2023-04-30T00:08:10;13.67;;;9.77;;
13607;SDS011;6875;50.852;5.672;2023-04-30T00:10:38;15.40;;;10.27;;
13607;SDS011;6875;50.852;5.672;2023-04-30T00:13:04;14.43;;;10.50;;
13607;SDS011;6875;50.852;5.672;2023-04-30T00:15:34;17.97;;;10.23;;
13607;SDS011;6875;50.852;5.672;2023-04-30T00:18:00;19.63;;;10.83;;
13607;SDS011;6875;50.852;5.672;2023-04-30T00:20:27;15.03;;;10.27;;
13607;SDS011;6875;50.852;5.672;2023-04-30T00:22:53;15.00;;;10.07;;
13607;SDS011;6875;50.852;5.672;2023-04-30T00:25:20;17.47;;;10.60;;
13607;SDS011;6875;50.852;5.672;2023-04-30T00:27:49;13.93;;;10.50;;
13607;SDS011;6875;50.852;5.672;2023-04-30T00:30:16;14.63;;;9.87;;
13607;SDS011;6875;50.852;5.672;2023-04-30T00:32:43;16.90;;;10.50;;
13607;SDS011;6875;50.852;5.672;2023-04-30T00:35:11;17.07;;;11.03;;
13607;SDS011;6875;50.852;5.672;2023-04-30T00:37:37;12.70;;;9.67;;
13607;SDS011;6875;50.852;5.672;2023-04-30T00:40:04;14.17;;;10.20;;
13607;SDS011;6875;50.852;5.672;2023-04-30T00:42:32;14.67;;;10.60;;
13607;SDS011;6875;50.852;5.672;2023-04-30T00:44:59;17.13;;;11.40;;
13607;SDS011;6875;50.852;5.672;2023-04-30T00:47:26;16.90;;;11.17;;
13607;SDS011;6875;50.852;5.672;2023-04-30T00:49:53;15.17;;;10.30;;
13607;SDS011;6875;50.852;5.672;2023-04-30T00:52:19;16.10;;;10.97;;
13607;SDS011;6875;50.852;5.672;2023-04-30T00:54:46;13.53;;;9.57;;
13607;SDS011;6875;50.852;5.672;2023-04-30T00:57:14;14.40;;;10.13;;
13607;SDS011;6875;50.852;5.672;2023-04-30T00:59:41;15.37;;;9.90;;
13607;SDS011;6875;50.852;5.672;2023-04-30T01:02:09;17.17;;;10.50;;
13607;SDS011;6875;50.852;5.672;2023-04-30T01:04:38;15.00;;;9.77;;
13607;SDS011;6875;50.852;5.672;2023-04-30T01:07:05;16.50;;;10.27;;
13607;SDS011;6875;50.852;5.672;2023-04-30T01:09:31;17.77;;;10.23;;
13607;SDS011;6875;50.852;5.672;2023-04-30T01:11:59;16.20;;;11.17;;
13607;SDS011;6875;50.852;5.672;2023-04-30T01:14:32;12.37;;;9.63;;
13607;SDS011;6875;50.852;5.672;2023-04-30T01:17:11;15.57;;;10.50;;
13607;SDS011;6875;50.852;5.672;2023-04-30T01:19:43;16.57;;;10.23;;
13607;SDS011;6875;50.852;5.672;2023-04-30T01:22:11;14.97;;;10.47;;
13607;SDS011;6875;50.852;5.672;2023-04-30T01:24:53;17.17;;;10.93;;
13607;SDS011;6875;50.852;5.672;2023-04-30T01:27:32;15.43;;;10.33;;
13607;SDS011;6875;50.852;5.672;2023-04-30T01:30:17;15.27;;;10.20;;
13607;SDS011;6875;50.852;5.672;2023-04-30T01:32:44;16.87;;;10.73;;
13607;SDS011;6875;50.852;5.672;2023-04-30T01:35:10;17.57;;;10.60;;
13607;SDS011;6875;50.852;5.672;2023-04-30T01:37:38;18.53;;;11.30;;
13607;SDS011;6875;50.852;5.672;2023-04-30T01:40:13;21.50;;;10.97;;
13607;SDS011;6875;50.852;5.672;2023-04-30T01:42:50;15.83;;;11.13;;
13607;SDS011;6875;50.852;5.672;2023-04-30T01:45:23;18.57;;;10.37;;
13607;SDS011;6875;50.852;5.672;2023-04-30T01:48:02;21.50;;;11.23;;
13607;SDS011;6875;50.852;5.672;2023-04-30T01:50:32;15.07;;;10.90;;
13607;SDS011;6875;50.852;5.672;2023-04-30T01:53:05;18.60;;;11.27;;
13607;SDS011;6875;50.852;5.672;2023-04-30T01:55:33;15.77;;;10.60;;
13607;SDS011;6875;50.852;5.672;2023-04-30T01:58:04;16.73;;;10.63;;
13607;SDS011;6875;50.852;5.672;2023-04-30T02:00:31;17.10;;;11.00;;
13607;SDS011;6875;50.852;5.672;2023-04-30T02:02:58;15.17;;;11.23;;
13607;SDS011;6875;50.852;5.672;2023-04-30T02:05:25;13.43;;;10.63;;
13607;SDS011;6875;50.852;5.672;2023-04-30T02:07:52;18.17;;;11.20;;
13607;SDS011;6875;50.852;5.672;2023-04-30T02:10:19;14.87;;;10.60;;
13607;SDS011;6875;50.852;5.672;2023-04-30T02:12:47;14.73;;;10.67;;
13607;SDS011;6875;50.852;5.672;2023-04-30T02:15:15;15.83;;;11.17;;
13607;SDS011;6875;50.852;5.672;2023-04-30T02:17:42;13.77;;;10.97;;
13607;SDS011;6875;50.852;5.672;2023-04-30T02:20:11;15.07;;;11.13;;
13607;SDS011;6875;50.852;5.672;2023-04-30T02:22:37;15.57;;;11.43;;
13607;SDS011;6875;50.852;5.672;2023-04-30T02:25:04;17.27;;;9.93;;
13607;SDS011;6875;50.852;5.672;2023-04-30T02:27:32;14.97;;;10.57;;
13607;SDS011;6875;50.852;5.672;2023-04-30T02:29:58;18.00;;;11.50;;
13607;SDS011;6875;50.852;5.672;2023-04-30T02:32:27;17.43;;;11.17;;
13607;SDS011;6875;50.852;5.672;2023-04-30T02:34:53;13.47;;;10.33;;
13607;SDS011;6875;50.852;5.672;2023-04-30T02:37:20;15.80;;;11.43;;
13607;SDS011;6875;50.852;5.672;2023-04-30T02:39:46;16.70;;;10.80;;
13607;SDS011;6875;50.852;5.672;2023-04-30T02:42:13;17.73;;;11.43;;
13607;SDS011;6875;50.852;5.672;2023-04-30T02:44:40;16.63;;;10.83;;
13607;SDS011;6875;50.852;5.672;2023-04-30T02:47:07;16.83;;;11.10;;
13607;SDS011;6875;50.852;5.672;2023-04-30T02:49:35;15.00;;;11.33;;
13607;SDS011;6875;50.852;5.672;2023-04-30T02:52:02;18.37;;;11.67;;
13607;SDS011;6875;50.852;5.672;2023-04-30T02:54:28;16.83;;;11.73;;
13607;SDS011;6875;50.852;5.672;2023-04-30T02:56:55;19.73;;;10.80;;
13607;SDS011;6875;50.852;5.672;2023-04-30T02:59:22;16.97;;;11.63;;
13607;SDS011;6875;50.852;5.672;2023-04-30T03:01:48;16.67;;;11.90;;
13607;SDS011;6875;50.852;5.672;2023-04-30T03:04:15;15.20;;;11.13;;
13607;SDS011;6875;50.852;5.672;2023-04-30T03:06:43;15.07;;;11.37;;
13607;SDS011;6875;50.852;5.672;2023-04-30T03:09:10;19.60;;;11.77;;
13607;SDS011;6875;50.852;5.672;2023-04-30T03:11:36;19.90;;;12.47;;
13607;SDS011;6875;50.852;5.672;2023-04-30T03:14:03;17.17;;;12.03;;
13607;SDS011;6875;50.852;5.672;2023-04-30T03:16:30;17.60;;;11.97;;
13607;SDS011;6875;50.852;5.672;2023-04-30T03:18:56;17.47;;;11.37;;
13607;SDS011;6875;50.852;5.672;2023-04-30T03:21:23;17.30;;;12.00;;
13607;SDS011;6875;50.852;5.672;2023-04-30T03:23:51;18.73;;;12.57;;
13607;SDS011;6875;50.852;5.672;2023-04-30T03:26:18;19.00;;;13.13;;
13607;SDS011;6875;50.852;5.672;2023-04-30T03:28:46;20.80;;;12.30;;
13607;SDS011;6875;50.852;5.672;2023-04-30T03:31:12;15.07;;;11.30;;
13607;SDS011;6875;50.852;5.672;2023-04-30T03:33:39;18.53;;;12.27;;
13607;SDS011;6875;50.852;5.672;2023-04-30T03:36:06;17.60;;;12.87;;
13607;SDS011;6875;50.852;5.672;2023-04-30T03:38:32;20.20;;;12.27;;
13607;SDS011;6875;50.852;5.672;2023-04-30T03:41:00;18.47;;;12.23;;
13607;SDS011;6875;50.852;5.672;2023-04-30T03:43:27;20.60;;;12.93;;
13607;SDS011;6875;50.852;5.672;2023-04-30T03:45:54;22.10;;;11.57;;
13607;SDS011;6875;50.852;5.672;2023-04-30T03:48:21;17.77;;;12.33;;
13607;SDS011;6875;50.852;5.672;2023-04-30T03:50:47;17.13;;;13.10;;
13607;SDS011;6875;50.852;5.672;2023-04-30T03:53:14;16.77;;;12.00;;
13607;SDS011;6875;50.852;5.672;2023-04-30T03:55:41;16.13;;;12.23;;
13607;SDS011;6875;50.852;5.672;2023-04-30T03:58:08;17.53;;;12.37;;
13607;SDS011;6875;50.852;5.672;2023-04-30T04:00:35;17.93;;;11.57;;
13607;SDS011;6875;50.852;5.672;2023-04-30T04:03:02;24.57;;;12.90;;
13607;SDS011;6875;50.852;5.672;2023-04-30T04:05:29;16.37;;;12.33;;
13607;SDS011;6875;50.852;5.672;2023-04-30T04:07:55;18.80;;;12.57;;
13607;SDS011;6875;50.852;5.672;2023-04-30T04:10:22;17.37;;;12.53;;
13607;SDS011;6875;50.852;5.672;2023-04-30T04:12:49;15.90;;;11.90;;
13607;SDS011;6875;50.852;5.672;2023-04-30T04:15:17;22.80;;;12.90;;
13607;SDS011;6875;50.852;5.672;2023-04-30T04:17:44;22.93;;;12.77;;
13607;SDS011;6875;50.852;5.672;2023-04-30T04:20:11;15.67;;;11.93;;
13607;SDS011;6875;50.852;5.672;2023-04-30T04:22:38;19.90;;;12.80;;
13607;SDS011;6875;50.852;5.672;2023-04-30T04:25:05;14.60;;;11.50;;
13607;SDS011;6875;50.852;5.672;2023-04-30T04:27:32;17.63;;;12.40;;
13607;SDS011;6875;50.852;5.672;2023-04-30T04:29:59;18.60;;;12.73;;
13607;SDS011;6875;50.852;5.672;2023-04-30T04:32:28;16.93;;;12.33;;
13607;SDS011;6875;50.852;5.672;2023-04-30T04:34:56;16.13;;;11.60;;
13607;SDS011;6875;50.852;5.672;2023-04-30T04:37:23;17.87;;;11.73;;
13607;SDS011;6875;50.852;5.672;2023-04-30T04:39:50;16.73;;;12.33;;
13607;SDS011;6875;50.852;5.672;2023-04-30T04:42:16;17.50;;;12.07;;
13607;SDS011;6875;50.852;5.672;2023-04-30T04:44:44;19.17;;;12.53;;
13607;SDS011;6875;50.852;5.672;2023-04-30T04:47:11;17.77;;;11.97;;
13607;SDS011;6875;50.852;5.672;2023-04-30T04:49:39;17.43;;;11.87;;
13607;SDS011;6875;50.852;5.672;2023-04-30T04:52:05;20.40;;;13.27;;
13607;SDS011;6875;50.852;5.672;2023-04-30T04:54:32;15.80;;;12.30;;
13607;SDS011;6875;50.852;5.672;2023-04-30T04:56:59;15.53;;;12.07;;
13607;SDS011;6875;50.852;5.672;2023-04-30T04:59:27;18.13;;;13.23;;
13607;SDS011;6875;50.852;5.672;2023-04-30T05:01:53;18.47;;;12.60;;
13607;SDS011;6875;50.852;5.672;2023-04-30T05:04:20;19.50;;;13.20;;
13607;SDS011;6875;50.852;5.672;2023-04-30T05:06:48;18.37;;;12.50;;
13607;SDS011;6875;50.852;5.672;2023-04-30T05:09:14;17.13;;;11.87;;
13607;SDS011;6875;50.852;5.672;2023-04-30T05:11:41;19.87;;;12.00;;
13607;SDS011;6875;50.852;5.672;2023-04-30T05:14:08;16.43;;;12.63;;
13607;SDS011;6875;50.852;5.672;2023-04-30T05:16:35;19.20;;;12.87;;
13607;SDS011;6875;50.852;5.672;2023-04-30T05:19:01;17.90;;;11.97;;
13607;SDS011;6875;50.852;5.672;2023-04-30T05:21:28;18.50;;;13.27;;
13607;SDS011;6875;50.852;5.672;2023-04-30T05:23:57;15.07;;;11.80;;
13607;SDS011;6875;50.852;5.672;2023-04-30T05:26:24;19.17;;;13.10;;
13607;SDS011;6875;50.852;5.672;2023-04-30T05:28:51;19.47;;;14.23;;
13607;SDS011;6875;50.852;5.672;2023-04-30T05:31:17;17.20;;;12.77;;
13607;SDS011;6875;50.852;5.672;2023-04-30T05:33:44;17.13;;;12.97;;
13607;SDS011;6875;50.852;5.672;2023-04-30T05:36:11;19.27;;;13.30;;
13607;SDS011;6875;50.852;5.672;2023-04-30T05:38:37;17.33;;;12.53;;
13607;SDS011;6875;50.852;5.672;2023-04-30T05:41:05;17.67;;;12.17;;
13607;SDS011;6875;50.852;5.672;2023-04-30T05:43:32;17.97;;;13.20;;
13607;SDS011;6875;50.852;5.672;2023-04-30T05:45:58;17.17;;;12.13;;
13607;SDS011;6875;50.852;5.672;2023-04-30T05:48:25;17.17;;;12.20;;
13607;SDS011;6875;50.852;5.672;2023-04-30T05:50:51;17.50;;;13.60;;
13607;SDS011;6875;50.852;5.672;2023-04-30T05:53:18;16.63;;;12.60;;
13607;SDS011;6875;50.852;5.672;2023-04-30T05:55:45;17.27;;;13.07;;
13607;SDS011;6875;50.852;5.672;2023-04-30T05:58:13;20.83;;;12.90;;
13607;SDS011;6875;50.852;5.672;2023-04-30T06:00:39;15.90;;;13.37;;
13607;SDS011;6875;50.852;5.672;2023-04-30T06:03:06;17.30;;;13.47;;
13607;SDS011;6875;50.852;5.672;2023-04-30T06:05:33;15.93;;;11.83;;
13607;SDS011;6875;50.852;5.672;2023-04-30T06:07:59;19.37;;;12.67;;
13607;SDS011;6875;50.852;5.672;2023-04-30T06:10:26;22.40;;;12.60;;
13607;SDS011;6875;50.852;5.672;2023-04-30T06:12:53;19.30;;;13.13;;
13607;SDS011;6875;50.852;5.672;2023-04-30T06:15:20;15.43;;;11.37;;
13607;SDS011;6875;50.852;5.672;2023-04-30T06:17:47;17.33;;;11.90;;
13607;SDS011;6875;50.852;5.672;2023-04-30T06:20:14;18.57;;;12.20;;
13607;SDS011;6875;50.852;5.672;2023-04-30T06:22:40;16.20;;;11.20;;
13607;SDS011;6875;50.852;5.672;2023-04-30T06:25:07;17.93;;;10.80;;
13607;SDS011;6875;50.852;5.672;2023-04-30T06:27:34;13.03;;;10.10;;
13607;SDS011;6875;50.852;5.672;2023-04-30T06:30:01;13.30;;;10.53;;
13607;SDS011;6875;50.852;5.672;2023-04-30T06:32:29;13.03;;;10.57;;
13607;SDS011;6875;50.852;5.672;2023-04-30T06:34:55;13.67;;;9.70;;
13607;SDS011;6875;50.852;5.672;2023-04-30T06:37:22;15.93;;;9.53;;
13607;SDS011;6875;50.852;5.672;2023-04-30T06:39:48;14.43;;;9.33;;
13607;SDS011;6875;50.852;5.672;2023-04-30T06:42:15;11.80;;;8.90;;
13607;SDS011;6875;50.852;5.672;2023-04-30T06:44:42;12.03;;;9.63;;
13607;SDS011;6875;50.852;5.672;2023-04-30T06:47:09;11.57;;;9.37;;
13607;SDS011;6875;50.852;5.672;2023-04-30T06:49:37;12.20;;;8.97;;
13607;SDS011;6875;50.852;5.672;2023-04-30T06:52:04;14.30;;;8.90;;
13607;SDS011;6875;50.852;5.672;2023-04-30T06:54:30;13.53;;;9.07;;
13607;SDS011;6875;50.852;5.672;2023-04-30T06:56:57;13.70;;;9.03;;
13607;SDS011;6875;50.852;5.672;2023-04-30T06:59:23;14.47;;;9.57;;
13607;SDS011;6875;50.852;5.672;2023-04-30T07:01:50;10.53;;;8.53;;
13607;SDS011;6875;50.852;5.672;2023-04-30T07:04:16;12.30;;;8.97;;
13607;SDS011;6875;50.852;5.672;2023-04-30T07:06:45;12.00;;;9.33;;
13607;SDS011;6875;50.852;5.672;2023-04-30T07:09:11;13.43;;;9.27;;
13607;SDS011;6875;50.852;5.672;2023-04-30T07:11:39;13.83;;;9.17;;
13607;SDS011;6875;50.852;5.672;2023-04-30T07:14:06;14.60;;;9.30;;
13607;SDS011;6875;50.852;5.672;2023-04-30T07:16:33;12.00;;;9.43;;
13607;SDS011;6875;50.852;5.672;2023-04-30T07:18:59;13.33;;;9.73;;
13607;SDS011;6875;50.852;5.672;2023-04-30T07:21:26;14.63;;;10.40;;
13607;SDS011;6875;50.852;5.672;2023-04-30T07:23:54;13.23;;;10.20;;
13607;SDS011;6875;50.852;5.672;2023-04-30T07:26:20;11.43;;;9.57;;
13607;SDS011;6875;50.852;5.672;2023-04-30T07:28:49;9.80;;;8.83;;
13607;SDS011;6875;50.852;5.672;2023-04-30T07:31:15;14.00;;;9.43;;
13607;SDS011;6875;50.852;5.672;2023-04-30T07:33:43;14.90;;;9.63;;
13607;SDS011;6875;50.852;5.672;2023-04-30T07:36:09;13.63;;;9.10;;
13607;SDS011;6875;50.852;5.672;2023-04-30T07:38:36;11.37;;;9.43;;
13607;SDS011;6875;50.852;5.672;2023-04-30T07:41:04;12.90;;;9.63;;
13607;SDS011;6875;50.852;5.672;2023-04-30T07:43:32;13.67;;;9.97;;
13607;SDS011;6875;50.852;5.672;2023-04-30T07:45:58;11.93;;;8.83;;
13607;SDS011;6875;50.852;5.672;2023-04-30T07:48:25;12.10;;;9.20;;
13607;SDS011;6875;50.852;5.672;2023-04-30T07:50:52;13.23;;;8.83;;
13607;SDS011;6875;50.852;5.672;2023-04-30T07:53:18;10.63;;;8.83;;
13607;SDS011;6875;50.852;5.672;2023-04-30T07:55:48;12.47;;;9.40;;
13607;SDS011;6875;50.852;5.672;2023-04-30T07:58:16;12.53;;;9.07;;
13607;SDS011;6875;50.852;5.672;2023-04-30T08:00:42;12.90;;;10.00;;
13607;SDS011;6875;50.852;5.672;2023-04-30T08:03:09;16.03;;;9.53;;
13607;SDS011;6875;50.852;5.672;2023-04-30T08:05:36;12.03;;;8.97;;
13607;SDS011;6875;50.852;5.672;2023-04-30T08:08:03;11.43;;;8.37;;
13607;SDS011;6875;50.852;5.672;2023-04-30T08:10:30;12.33;;;9.00;;
13607;SDS011;6875;50.852;5.672;2023-04-30T08:12:57;11.07;;;8.73;;
13607;SDS011;6875;50.852;5.672;2023-04-30T08:15:25;11.80;;;9.30;;
13607;SDS011;6875;50.852;5.672;2023-04-30T08:17:51;9.87;;;8.60;;
13607;SDS011;6875;50.852;5.672;2023-04-30T08:20:18;13.87;;;8.53;;
13607;SDS011;6875;50.852;5.672;2023-04-30T08:22:47;14.23;;;9.17;;
13607;SDS011;6875;50.852;5.672;2023-04-30T08:25:13;13.00;;;8.83;;
13607;SDS011;6875;50.852;5.672;2023-04-30T08:27:40;13.80;;;9.43;;
13607;SDS011;6875;50.852;5.672;2023-04-30T08:30:07;13.33;;;9.57;;
13607;SDS011;6875;50.852;5.672;2023-04-30T08:32:35;11.47;;;9.00;;
13607;SDS011;6875;50.852;5.672;2023-04-30T08:35:02;12.57;;;9.13;;
13607;SDS011;6875;50.852;5.672;2023-04-30T08:37:29;13.17;;;8.37;;
13607;SDS011;6875;50.852;5.672;2023-04-30T08:39:56;12.23;;;9.17;;
13607;SDS011;6875;50.852;5.672;2023-04-30T08:42:24;11.13;;;8.77;;
13607;SDS011;6875;50.852;5.672;2023-04-30T08:44:51;12.10;;;8.97;;
13607;SDS011;6875;50.852;5.672;2023-04-30T08:47:18;10.60;;;9.03;;
13607;SDS011;6875;50.852;5.672;2023-04-30T08:49:46;9.60;;;8.60;;
13607;SDS011;6875;50.852;5.672;2023-04-30T08:52:13;11.03;;;8.87;;
13607;SDS011;6875;50.852;5.672;2023-04-30T08:54:40;10.13;;;7.60;;
13607;SDS011;6875;50.852;5.672;2023-04-30T08:57:07;12.57;;;7.73;;
13607;SDS011;6875;50.852;5.672;2023-04-30T08:59:34;10.33;;;7.50;;
13607;SDS011;6875;50.852;5.672;2023-04-30T09:02:01;10.63;;;7.37;;
13607;SDS011;6875;50.852;5.672;2023-04-30T09:04:27;11.70;;;7.43;;
13607;SDS011;6875;50.852;5.672;2023-04-30T09:06:56;10.87;;;8.57;;
13607;SDS011;6875;50.852;5.672;2023-04-30T09:09:26;10.77;;;8.20;;
13607;SDS011;6875;50.852;5.672;2023-04-30T09:11:56;9.50;;;7.50;;
13607;SDS011;6875;50.852;5.672;2023-04-30T09:14:36;10.20;;;8.17;;
13607;SDS011;6875;50.852;5.672;2023-04-30T09:17:04;10.80;;;8.00;;
13607;SDS011;6875;50.852;5.672;2023-04-30T09:19:31;10.23;;;7.17;;
13607;SDS011;6875;50.852;5.672;2023-04-30T09:22:08;9.23;;;7.67;;
13607;SDS011;6875;50.852;5.672;2023-04-30T09:24:44;10.40;;;8.23;;
13607;SDS011;6875;50.852;5.672;2023-04-30T09:27:14;12.80;;;8.63;;
13607;SDS011;6875;50.852;5.672;2023-04-30T09:29:42;10.67;;;7.97;;
13607;SDS011;6875;50.852;5.672;2023-04-30T09:32:09;9.03;;;7.80;;
13607;SDS011;6875;50.852;5.672;2023-04-30T09:34:35;10.37;;;7.90;;
13607;SDS011;6875;50.852;5.672;2023-04-30T09:37:03;10.67;;;8.03;;
13607;SDS011;6875;50.852;5.672;2023-04-30T09:39:30;9.43;;;7.50;;
13607;SDS011;6875;50.852;5.672;2023-04-30T09:42:06;10.10;;;7.90;;
13607;SDS011;6875;50.852;5.672;2023-04-30T09:44:35;9.87;;;7.60;;
13607;SDS011;6875;50.852;5.672;2023-04-30T09:47:02;10.37;;;7.30;;
13607;SDS011;6875;50.852;5.672;2023-04-30T09:49:29;8.33;;;7.33;;
13607;SDS011;6875;50.852;5.672;2023-04-30T09:51:56;9.10;;;7.30;;
13607;SDS011;6875;50.852;5.672;2023-04-30T09:54:26;9.10;;;7.67;;
13607;SDS011;6875;50.852;5.672;2023-04-30T09:56:54;8.63;;;6.70;;
13607;SDS011;6875;50.852;5.672;2023-04-30T09:59:22;7.93;;;6.43;;
13607;SDS011;6875;50.852;5.672;2023-04-30T10:01:52;9.00;;;6.67;;
13607;SDS011;6875;50.852;5.672;2023-04-30T10:04:19;7.77;;;5.40;;
13607;SDS011;6875;50.852;5.672;2023-04-30T10:06:46;9.37;;;6.43;;
13607;SDS011;6875;50.852;5.672;2023-04-30T10:09:13;14.23;;;6.50;;
13607;SDS011;6875;50.852;5.672;2023-04-30T10:11:42;7.00;;;5.37;;
13607;SDS011;6875;50.852;5.672;2023-04-30T10:14:11;10.20;;;5.97;;
13607;SDS011;6875;50.852;5.672;2023-04-30T10:16:39;7.77;;;6.13;;
13607;SDS011;6875;50.852;5.672;2023-04-30T10:19:11;6.30;;;5.70;;
13607;SDS011;6875;50.852;5.672;2023-04-30T10:21:39;6.97;;;5.33;;
13607;SDS011;6875;50.852;5.672;2023-04-30T10:24:08;11.53;;;5.73;;
13607;SDS011;6875;50.852;5.672;2023-04-30T10:26:35;8.53;;;6.13;;
13607;SDS011;6875;50.852;5.672;2023-04-30T10:29:03;6.67;;;5.93;;
13607;SDS011;6875;50.852;5.672;2023-04-30T10:31:31;6.67;;;5.97;;
13607;SDS011;6875;50.852;5.672;2023-04-30T10:34:00;9.10;;;6.20;;
13607;SDS011;6875;50.852;5.672;2023-04-30T10:36:35;10.20;;;6.07;;
13607;SDS011;6875;50.852;5.672;2023-04-30T10:39:05;7.87;;;6.23;;
13607;SDS011;6875;50.852;5.672;2023-04-30T10:41:32;7.30;;;6.23;;
13607;SDS011;6875;50.852;5.672;2023-04-30T10:44:00;7.13;;;5.67;;
13607;SDS011;6875;50.852;5.672;2023-04-30T10:46:30;8.13;;;6.43;;
13607;SDS011;6875;50.852;5.672;2023-04-30T10:49:00;8.50;;;6.70;;
13607;SDS011;6875;50.852;5.672;2023-04-30T10:54:14;7.83;;;5.83;;
13607;SDS011;6875;50.852;5.672;2023-04-30T10:56:43;7.07;;;6.33;;
13607;SDS011;6875;50.852;5.672;2023-04-30T10:59:11;6.90;;;6.20;;
13607;SDS011;6875;50.852;5.672;2023-04-30T11:04:22;9.00;;;6.63;;
13607;SDS011;6875;50.852;5.672;2023-04-30T11:06:49;8.30;;;6.93;;
13607;SDS011;6875;50.852;5.672;2023-04-30T11:09:23;7.80;;;6.47;;
13607;SDS011;6875;50.852;5.672;2023-04-30T11:12:01;6.97;;;6.27;;
13607;SDS011;6875;50.852;5.672;2023-04-30T11:14:30;7.73;;;6.57;;
13607;SDS011;6875;50.852;5.672;2023-04-30T11:16:59;8.17;;;6.30;;
13607;SDS011;6875;50.852;5.672;2023-04-30T11:19:26;10.10;;;6.97;;
13607;SDS011;6875;50.852;5.672;2023-04-30T11:24:50;9.70;;;8.10;;
13607;SDS011;6875;50.852;5.672;2023-04-30T11:27:21;10.77;;;7.93;;
13607;SDS011;6875;50.852;5.672;2023-04-30T11:29:48;7.53;;;6.83;;
13607;SDS011;6875;50.852;5.672;2023-04-30T11:32:17;9.07;;;6.67;;
13607;SDS011;6875;50.852;5.672;2023-04-30T11:34:44;8.10;;;6.77;;
13607;SDS011;6875;50.852;5.672;2023-04-30T11:37:11;8.03;;;6.90;;
13607;SDS011;6875;50.852;5.672;2023-04-30T11:39:56;7.07;;;6.37;;
13607;SDS011;6875;50.852;5.672;2023-04-30T11:42:22;7.77;;;6.63;;
13607;SDS011;6875;50.852;5.672;2023-04-30T11:44:49;11.70;;;7.50;;
13607;SDS011;6875;50.852;5.672;2023-04-30T11:47:16;10.93;;;7.03;;
13607;SDS011;6875;50.852;5.672;2023-04-30T11:49:44;8.30;;;6.93;;
13607;SDS011;6875;50.852;5.672;2023-04-30T11:52:11;9.17;;;6.77;;
13607;SDS011;6875;50.852;5.672;2023-04-30T11:54:39;7.47;;;6.23;;
13607;SDS011;6875;50.852;5.672;2023-04-30T11:57:06;8.23;;;6.63;;
13607;SDS011;6875;50.852;5.672;2023-04-30T11:59:38;7.00;;;6.30;;
13607;SDS011;6875;50.852;5.672;2023-04-30T12:02:06;8.90;;;6.63;;
13607;SDS011;6875;50.852;5.672;2023-04-30T12:04:34;7.77;;;6.53;;
13607;SDS011;6875;50.852;5.672;2023-04-30T12:07:01;7.73;;;5.80;;
13607;SDS011;6875;50.852;5.672;2023-04-30T12:09:28;8.23;;;6.50;;
13607;SDS011;6875;50.852;5.672;2023-04-30T12:11:55;6.87;;;6.17;;
13607;SDS011;6875;50.852;5.672;2023-04-30T12:14:23;6.40;;;5.80;;
13607;SDS011;6875;50.852;5.672;2023-04-30T12:16:50;7.50;;;6.47;;
13607;SDS011;6875;50.852;5.672;2023-04-30T12:19:17;6.23;;;5.60;;
13607;SDS011;6875;50.852;5.672;2023-04-30T12:21:46;7.40;;;5.37;;
13607;SDS011;6875;50.852;5.672;2023-04-30T12:24:14;8.50;;;6.23;;
13607;SDS011;6875;50.852;5.672;2023-04-30T12:26:41;6.60;;;5.80;;
13607;SDS011;6875;50.852;5.672;2023-04-30T12:29:09;9.23;;;5.87;;
13607;SDS011;6875;50.852;5.672;2023-04-30T12:31:36;6.87;;;5.70;;
13607;SDS011;6875;50.852;5.672;2023-04-30T12:34:04;6.10;;;5.50;;
13607;SDS011;6875;50.852;5.672;2023-04-30T12:36:32;7.27;;;5.30;;
13607;SDS011;6875;50.852;5.672;2023-04-30T12:39:04;6.00;;;5.33;;
13607;SDS011;6875;50.852;5.672;2023-04-30T12:41:34;6.40;;;5.43;;
13607;SDS011;6875;50.852;5.672;2023-04-30T12:44:17;7.27;;;4.77;;
13607;SDS011;6875;50.852;5.672;2023-04-30T12:46:45;5.27;;;4.60;;
13607;SDS011;6875;50.852;5.672;2023-04-30T12:49:20;5.70;;;5.10;;
13607;SDS011;6875;50.852;5.672;2023-04-30T12:51:48;5.53;;;4.27;;
13607;SDS011;6875;50.852;5.672;2023-04-30T12:54:16;7.90;;;4.43;;
13607;SDS011;6875;50.852;5.672;2023-04-30T12:56:59;4.90;;;4.17;;
13607;SDS011;6875;50.852;5.672;2023-04-30T12:59:27;5.37;;;4.40;;
13607;SDS011;6875;50.852;5.672;2023-04-30T13:01:56;4.60;;;4.07;;
13607;SDS011;6875;50.852;5.672;2023-04-30T13:04:32;5.30;;;4.50;;
13607;SDS011;6875;50.852;5.672;2023-04-30T13:06:59;4.50;;;4.10;;
13607;SDS011;6875;50.852;5.672;2023-04-30T13:09:28;4.37;;;3.83;;
13607;SDS011;6875;50.852;5.672;2023-04-30T13:11:55;5.67;;;3.90;;
13607;SDS011;6875;50.852;5.672;2023-04-30T13:14:22;5.27;;;3.80;;
13607;SDS011;6875;50.852;5.672;2023-04-30T13:16:49;5.23;;;3.80;;
13607;SDS011;6875;50.852;5.672;2023-04-30T13:19:15;4.50;;;3.53;;
13607;SDS011;6875;50.852;5.672;2023-04-30T13:21:42;5.87;;;3.67;;
13607;SDS011;6875;50.852;5.672;2023-04-30T13:24:09;4.53;;;3.77;;
13607;SDS011;6875;50.852;5.672;2023-04-30T13:26:37;4.23;;;3.70;;
13607;SDS011;6875;50.852;5.672;2023-04-30T13:29:04;4.60;;;3.33;;
13607;SDS011;6875;50.852;5.672;2023-04-30T13:31:34;3.47;;;3.17;;
13607;SDS011;6875;50.852;5.672;2023-04-30T13:34:01;4.03;;;3.40;;
13607;SDS011;6875;50.852;5.672;2023-04-30T13:36:27;4.27;;;3.47;;
13607;SDS011;6875;50.852;5.672;2023-04-30T13:38:54;3.83;;;3.43;;
13607;SDS011;6875;50.852;5.672;2023-04-30T13:41:21;3.70;;;3.40;;
13607;SDS011;6875;50.852;5.672;2023-04-30T13:43:49;5.67;;;3.63;;
13607;SDS011;6875;50.852;5.672;2023-04-30T13:46:16;4.63;;;3.90;;
13607;SDS011;6875;50.852;5.672;2023-04-30T13:48:43;5.03;;;3.17;;
13607;SDS011;6875;50.852;5.672;2023-04-30T13:51:12;3.60;;;2.87;;
13607;SDS011;6875;50.852;5.672;2023-04-30T13:53:38;3.63;;;3.10;;
13607;SDS011;6875;50.852;5.672;2023-04-30T13:56:05;4.60;;;3.00;;
13607;SDS011;6875;50.852;5.672;2023-04-30T13:58:32;2.63;;;2.43;;
13607;SDS011;6875;50.852;5.672;2023-04-30T14:01:00;3.87;;;3.40;;
13607;SDS011;6875;50.852;5.672;2023-04-30T14:03:29;4.37;;;3.20;;
13607;SDS011;6875;50.852;5.672;2023-04-30T14:05:57;3.30;;;2.97;;
13607;SDS011;6875;50.852;5.672;2023-04-30T14:08:24;2.97;;;2.50;;
13607;SDS011;6875;50.852;5.672;2023-04-30T14:10:51;3.20;;;2.90;;
13607;SDS011;6875;50.852;5.672;2023-04-30T14:13:17;3.70;;;2.90;;
13607;SDS011;6875;50.852;5.672;2023-04-30T14:15:44;4.10;;;3.17;;
13607;SDS011;6875;50.852;5.672;2023-04-30T14:18:13;3.70;;;3.20;;
13607;SDS011;6875;50.852;5.672;2023-04-30T14:20:40;4.57;;;3.07;;
13607;SDS011;6875;50.852;5.672;2023-04-30T14:23:07;4.57;;;3.10;;
13607;SDS011;6875;50.852;5.672;2023-04-30T14:25:33;3.63;;;2.70;;
13607;SDS011;6875;50.852;5.672;2023-04-30T14:28:00;4.50;;;3.10;;
13607;SDS011;6875;50.852;5.672;2023-04-30T14:30:27;4.47;;;2.57;;
13607;SDS011;6875;50.852;5.672;2023-04-30T14:32:54;3.77;;;2.93;;
13607;SDS011;6875;50.852;5.672;2023-04-30T14:35:22;2.87;;;2.60;;
13607;SDS011;6875;50.852;5.672;2023-04-30T14:37:49;5.50;;;3.10;;
13607;SDS011;6875;50.852;5.672;2023-04-30T14:40:15;4.87;;;3.30;;
13607;SDS011;6875;50.852;5.672;2023-04-30T14:42:42;3.93;;;2.97;;
13607;SDS011;6875;50.852;5.672;2023-04-30T14:45:09;2.97;;;2.10;;
13607;SDS011;6875;50.852;5.672;2023-04-30T14:47:36;2.93;;;2.40;;
13607;SDS011;6875;50.852;5.672;2023-04-30T14:50:03;3.20;;;2.47;;
13607;SDS011;6875;50.852;5.672;2023-04-30T14:52:31;3.27;;;2.23;;
13607;SDS011;6875;50.852;5.672;2023-04-30T14:54:58;3.93;;;2.60;;
13607;SDS011;6875;50.852;5.672;2023-04-30T14:57:25;4.17;;;2.20;;